createdAt,value
2023-04-21T00:09:37.090Z,102315.00
2023-04-21T00:19:59.739Z,102319.00
2023-04-21T00:30:21.261Z,102307.00
2023-04-21T00:40:44.479Z,102312.00
2023-04-21T00:51:07.076Z,102304.00
2023-04-21T01:01:31.669Z,102309.00
2023-04-21T01:12:03.191Z,102305.00
2023-04-21T01:22:26.807Z,102295.00
2023-04-21T01:32:48.553Z,102299.00
2023-04-21T01:43:11.827Z,102295.00
2023-04-21T01:53:35.145Z,102296.00
2023-04-21T02:03:58.368Z,102291.00
2023-04-21T02:14:20.291Z,102285.00
2023-04-21T02:24:44.074Z,102272.00
2023-04-21T02:35:08.526Z,102275.00
2023-04-21T02:45:32.250Z,102269.00
2023-04-21T02:55:53.735Z,102275.00
2023-04-21T03:06:16.706Z,102266.00
2023-04-21T03:16:38.286Z,102270.00
2023-04-21T03:27:03.534Z,102261.00
2023-04-21T03:37:27.352Z,102268.00
2023-04-21T03:47:54.719Z,102277.00
2023-04-21T03:58:16.155Z,102278.00
2023-04-21T04:08:38.850Z,102283.00
2023-04-21T04:19:00.363Z,102282.00
2023-04-21T04:29:23.679Z,102279.00
2023-04-21T04:39:45.141Z,102284.00
2023-04-21T04:50:08.844Z,102302.00
2023-04-21T05:00:31.817Z,102289.00
2023-04-21T05:10:54.457Z,102291.00
2023-04-21T05:21:15.679Z,102287.00
2023-04-21T05:31:42.047Z,102284.00
2023-04-21T05:42:15.684Z,102289.00
2023-04-21T05:52:39.080Z,102286.00
2023-04-21T06:03:00.865Z,102277.00
2023-04-21T06:13:23.948Z,102261.00
2023-04-21T06:23:45.437Z,102254.00
2023-04-21T06:34:08.569Z,102210.00
2023-04-21T06:44:32.285Z,102225.00
2023-04-21T06:54:55.139Z,102199.00
2023-04-21T07:05:16.831Z,102206.00
2023-04-21T07:15:39.930Z,102197.00
2023-04-21T07:26:01.190Z,102190.00
2023-04-21T07:36:24.629Z,102181.00
2023-04-21T07:46:46.494Z,102168.00
2023-04-21T07:57:10.545Z,102169.00
2023-04-21T08:07:32.364Z,102154.00
2023-04-21T08:17:56.596Z,102160.00
2023-04-21T08:28:18.301Z,102148.00
2023-04-21T08:38:44.270Z,102131.00
2023-04-21T08:49:06.725Z,102129.00
2023-04-21T08:59:29.834Z,102125.00
2023-04-21T09:09:54.718Z,102113.00
2023-04-21T09:20:19.844Z,102109.00
2023-04-21T09:30:43.254Z,102106.00
2023-04-21T09:41:06.571Z,102096.00
2023-04-21T09:51:42.787Z,102101.00
2023-04-21T10:02:13.937Z,102085.00
2023-04-21T10:12:36.314Z,102073.00
2023-04-21T10:23:00.191Z,102075.00
2023-04-21T10:33:25.508Z,102051.00
2023-04-21T10:43:51.705Z,102054.00
2023-04-21T10:54:15.810Z,102038.00
2023-04-21T11:04:40.297Z,102026.00
2023-04-21T11:15:07.371Z,102009.00
2023-04-21T11:25:31.556Z,102002.00
2023-04-21T11:35:57.816Z,101992.00
2023-04-21T11:46:25.696Z,101976.00
2023-04-21T11:56:48.714Z,101969.00
2023-04-21T12:07:11.735Z,101961.00
2023-04-21T12:17:39.101Z,101955.00
2023-04-21T12:28:02.129Z,101938.00
2023-04-21T12:38:23.851Z,101928.00
2023-04-21T12:48:46.377Z,101957.00
2023-04-21T12:59:09.827Z,101917.00
2023-04-21T13:09:33.765Z,101933.00
2023-04-21T13:19:55.540Z,101906.00
2023-04-21T13:30:18.611Z,101901.00
2023-04-21T13:40:46.091Z,101861.00
2023-04-21T13:51:09.277Z,101863.00
2023-04-21T14:01:30.757Z,101854.00
2023-04-21T14:11:53.859Z,101857.00
2023-04-21T14:22:15.580Z,101843.00
2023-04-21T14:32:39.343Z,101810.00
2023-04-21T14:43:01.237Z,101791.00
2023-04-21T14:53:24.373Z,101800.00
2023-04-21T15:03:46.096Z,101777.00
2023-04-21T15:14:09.140Z,101765.00
2023-04-21T15:24:30.564Z,101783.00
2023-04-21T15:34:53.302Z,101765.00
2023-04-21T15:45:17.782Z,101761.00
2023-04-21T15:55:40.866Z,101747.00
2023-04-21T16:06:04.072Z,101749.00
2023-04-21T16:16:28.122Z,101727.00
2023-04-21T16:26:49.889Z,101729.00
2023-04-21T16:37:14.239Z,101735.00
2023-04-21T16:47:41.661Z,101721.00
2023-04-21T16:58:05.568Z,101719.00
2023-04-21T17:08:27.282Z,101722.00
2023-04-21T17:18:50.953Z,101732.00
2023-04-21T17:29:12.590Z,101738.00
2023-04-21T17:39:35.930Z,101743.00
2023-04-21T17:49:57.627Z,101754.00
2023-04-21T18:00:21.903Z,101751.00
2023-04-21T18:10:43.155Z,101756.00
2023-04-21T18:21:06.060Z,101768.00
2023-04-21T18:31:28.788Z,101779.00
2023-04-21T18:41:52.094Z,101770.00
2023-04-21T18:52:14.387Z,101780.00
2023-04-21T19:02:37.174Z,101786.00
2023-04-21T19:12:58.714Z,101786.00
2023-04-21T19:23:21.490Z,101783.00
2023-04-21T19:33:43.069Z,101793.00
2023-04-21T19:44:06.406Z,101793.00
2023-04-21T19:54:27.737Z,101790.00
2023-04-21T20:04:50.879Z,101784.00
2023-04-21T20:15:13.287Z,101796.00
2023-04-21T20:25:36.367Z,101804.00
2023-04-21T20:35:58.060Z,101798.00
2023-04-21T20:46:21.872Z,101811.00
2023-04-21T20:56:43.804Z,101806.00
2023-04-21T21:07:06.636Z,101826.00
2023-04-21T21:17:30.476Z,101825.00
2023-04-21T21:27:53.155Z,101830.00
2023-04-21T21:38:14.447Z,101834.00
2023-04-21T21:48:37.295Z,101830.00
2023-04-21T21:58:58.887Z,101836.00
2023-04-21T22:09:22.195Z,101836.00
2023-04-21T22:19:43.981Z,101843.00
2023-04-21T22:30:08.725Z,101851.00
2023-04-21T22:40:31.045Z,101858.00
2023-04-21T22:50:54.334Z,101870.00
2023-04-21T23:01:17.206Z,101878.00
2023-04-21T23:11:40.545Z,101860.00
2023-04-21T23:22:01.813Z,101871.00
2023-04-21T23:32:24.603Z,101877.00
2023-04-21T23:42:47.147Z,101880.00
2023-04-21T23:53:10.386Z,101874.00
